Briefing drone pour Le bosc-roger-en-roumois

Rechercher une autre localisation

Conditions de vol :


Nous sommes le : Samedi 23 octobre 2021
Il est 05:08 UTC (07:08 LT)

Lever de soleil : 06:03 UTC (08:03 LT)
Coucher de soleil : 17:17 UTC (19:17 LT)

Météo

L'essentiel des conditions de vol

VIGILANCE MÉTÉO FRANCE - Eure (27)
Pas de vigilances particulieres
CARTE TEMSI
CARTES DES FRONTS
METAR de LFOP
LFOP 230500Z AUTO 12004KT 9000 NSC 04/03 Q1026

Date d'émission: 23/10/2021
Heure d'émission: 05:00 UTC
Vent: 120° pour 4 KT (7 km/h)
Visibilité horizontale: 9000 m
Plafond : Pas de nuages significatifs (NSC)
Température: 4 °C
Point de rosée: 3 °C
Humidité: 93%
Pression (QNH): 1026 hPa
TAF de LFOP
LFOP 222004Z 2220/2318 CNL

Conditions prévues :

Heure d'émission : Bulletin éffectué le 22 à 20:00 UTC
Prévision : Valide du 22 a 20:00 UTC au 23 a 18:00 UTC
Nuages : à 0ft (0 m)
WEBCAM POUR LE BOSC-ROGER-EN-ROUMOIS

Réglementation

Voler en sécurité

CARTES AERONAUTIQUE 1/500.000
CARTES VAC (LFOP)
SUP AIP




Chargement des AIP...
NOTAM (LE BOSC-ROGER-EN-ROUMOIS + Terrain à proximité / FIR )




Chargement des NOTAMS...
CONTACT PREFECTURE 27


Avertissement : Les données mises à disposition sont indicatives. Oxygène Drone ne pourra être tenu responsable de dégâts causés aux biens et aux personnes.